sensor_id;sensor_type;location;lat;lon;timestamp;P1;durP1;ratioP1;P2;durP2;ratioP2
42864;SDS011;28511;42.680;23.252;2023-03-11T00:00:05;2.95;;;2.20;;
42864;SDS011;28511;42.680;23.252;2023-03-11T00:02:37;1.65;;;1.55;;
42864;SDS011;28511;42.680;23.252;2023-03-11T00:05:02;0.80;;;0.75;;
42864;SDS011;28511;42.680;23.252;2023-03-11T00:07:28;1.58;;;0.88;;
42864;SDS011;28511;42.680;23.252;2023-03-11T00:09:53;0.50;;;0.50;;
42864;SDS011;28511;42.680;23.252;2023-03-11T00:12:18;0.20;;;0.20;;
42864;SDS011;28511;42.680;23.252;2023-03-11T00:14:43;1.47;;;0.70;;
42864;SDS011;28511;42.680;23.252;2023-03-11T00:17:09;0.38;;;0.38;;
42864;SDS011;28511;42.680;23.252;2023-03-11T00:19:34;0.47;;;0.40;;
42864;SDS011;28511;42.680;23.252;2023-03-11T00:22:00;1.00;;;1.00;;
42864;SDS011;28511;42.680;23.252;2023-03-11T00:24:26;0.98;;;0.43;;
42864;SDS011;28511;42.680;23.252;2023-03-11T00:26:51;0.73;;;0.70;;
42864;SDS011;28511;42.680;23.252;2023-03-11T00:29:16;0.40;;;0.40;;
42864;SDS011;28511;42.680;23.252;2023-03-11T00:31:42;1.17;;;0.63;;
42864;SDS011;28511;42.680;23.252;2023-03-11T00:34:07;1.27;;;0.57;;
42864;SDS011;28511;42.680;23.252;2023-03-11T00:36:32;0.20;;;0.20;;
42864;SDS011;28511;42.680;23.252;2023-03-11T00:38:58;0.80;;;0.38;;
42864;SDS011;28511;42.680;23.252;2023-03-11T00:41:24;0.47;;;0.47;;
42864;SDS011;28511;42.680;23.252;2023-03-11T00:43:49;0.75;;;0.75;;
42864;SDS011;28511;42.680;23.252;2023-03-11T00:46:14;1.50;;;0.97;;
42864;SDS011;28511;42.680;23.252;2023-03-11T00:48:40;3.42;;;0.63;;
42864;SDS011;28511;42.680;23.252;2023-03-11T00:51:06;0.68;;;0.68;;
42864;SDS011;28511;42.680;23.252;2023-03-11T00:53:31;0.30;;;0.30;;
42864;SDS011;28511;42.680;23.252;2023-03-11T00:55:56;0.25;;;0.25;;
42864;SDS011;28511;42.680;23.252;2023-03-11T00:58:22;0.20;;;0.20;;
42864;SDS011;28511;42.680;23.252;2023-03-11T01:00:51;1.10;;;0.40;;
42864;SDS011;28511;42.680;23.252;2023-03-11T01:03:17;0.30;;;0.30;;
42864;SDS011;28511;42.680;23.252;2023-03-11T01:05:43;0.60;;;0.52;;
42864;SDS011;28511;42.680;23.252;2023-03-11T01:08:08;0.50;;;0.50;;
42864;SDS011;28511;42.680;23.252;2023-03-11T01:10:34;0.88;;;0.50;;
42864;SDS011;28511;42.680;23.252;2023-03-11T01:12:59;0.20;;;0.20;;
42864;SDS011;28511;42.680;23.252;2023-03-11T01:15:27;0.40;;;0.40;;
42864;SDS011;28511;42.680;23.252;2023-03-11T01:17:52;0.43;;;0.40;;
42864;SDS011;28511;42.680;23.252;2023-03-11T01:20:18;1.45;;;0.75;;
42864;SDS011;28511;42.680;23.252;2023-03-11T01:22:43;0.60;;;0.60;;
42864;SDS011;28511;42.680;23.252;2023-03-11T01:25:16;0.77;;;0.77;;
42864;SDS011;28511;42.680;23.252;2023-03-11T01:27:41;1.00;;;0.68;;
42864;SDS011;28511;42.680;23.252;2023-03-11T01:30:07;0.60;;;0.60;;
42864;SDS011;28511;42.680;23.252;2023-03-11T01:32:33;0.45;;;0.45;;
42864;SDS011;28511;42.680;23.252;2023-03-11T01:34:58;1.27;;;0.82;;
42864;SDS011;28511;42.680;23.252;2023-03-11T01:37:23;0.47;;;0.47;;
42864;SDS011;28511;42.680;23.252;2023-03-11T01:39:49;2.08;;;1.55;;
42864;SDS011;28511;42.680;23.252;2023-03-11T01:42:14;2.93;;;1.20;;
42864;SDS011;28511;42.680;23.252;2023-03-11T01:44:39;1.17;;;0.85;;
42864;SDS011;28511;42.680;23.252;2023-03-11T01:49:30;3.50;;;1.13;;
42864;SDS011;28511;42.680;23.252;2023-03-11T01:51:56;1.25;;;1.15;;
42864;SDS011;28511;42.680;23.252;2023-03-11T01:54:24;1.25;;;1.15;;
42864;SDS011;28511;42.680;23.252;2023-03-11T01:56:51;2.47;;;1.42;;
42864;SDS011;28511;42.680;23.252;2023-03-11T01:59:18;0.98;;;0.90;;
42864;SDS011;28511;42.680;23.252;2023-03-11T02:01:53;0.40;;;0.40;;
42864;SDS011;28511;42.680;23.252;2023-03-11T02:04:21;0.57;;;0.57;;
42864;SDS011;28511;42.680;23.252;2023-03-11T02:06:47;0.47;;;0.47;;
42864;SDS011;28511;42.680;23.252;2023-03-11T02:09:12;0.22;;;0.22;;
42864;SDS011;28511;42.680;23.252;2023-03-11T02:11:37;0.40;;;0.40;;
42864;SDS011;28511;42.680;23.252;2023-03-11T02:14:03;0.63;;;0.60;;
42864;SDS011;28511;42.680;23.252;2023-03-11T02:16:30;0.57;;;0.57;;
42864;SDS011;28511;42.680;23.252;2023-03-11T02:18:57;1.38;;;0.73;;
42864;SDS011;28511;42.680;23.252;2023-03-11T02:21:24;0.32;;;0.32;;
42864;SDS011;28511;42.680;23.252;2023-03-11T02:23:58;0.50;;;0.50;;
42864;SDS011;28511;42.680;23.252;2023-03-11T02:26:29;0.30;;;0.30;;
42864;SDS011;28511;42.680;23.252;2023-03-11T02:28:55;0.60;;;0.60;;
42864;SDS011;28511;42.680;23.252;2023-03-11T02:31:21;1.10;;;0.65;;
42864;SDS011;28511;42.680;23.252;2023-03-11T02:33:48;0.40;;;0.40;;
42864;SDS011;28511;42.680;23.252;2023-03-11T02:36:29;0.50;;;0.50;;
42864;SDS011;28511;42.680;23.252;2023-03-11T02:38:54;1.30;;;0.85;;
42864;SDS011;28511;42.680;23.252;2023-03-11T02:41:20;0.35;;;0.35;;
42864;SDS011;28511;42.680;23.252;2023-03-11T02:43:45;0.40;;;0.40;;
42864;SDS011;28511;42.680;23.252;2023-03-11T02:46:11;0.43;;;0.43;;
42864;SDS011;28511;42.680;23.252;2023-03-11T02:48:36;0.65;;;0.60;;
42864;SDS011;28511;42.680;23.252;2023-03-11T02:51:02;0.40;;;0.40;;
42864;SDS011;28511;42.680;23.252;2023-03-11T02:53:27;0.50;;;0.50;;
42864;SDS011;28511;42.680;23.252;2023-03-11T02:55:54;0.65;;;0.50;;
42864;SDS011;28511;42.680;23.252;2023-03-11T02:58:19;0.40;;;0.40;;
42864;SDS011;28511;42.680;23.252;2023-03-11T03:00:45;0.70;;;0.47;;
42864;SDS011;28511;42.680;23.252;2023-03-11T03:03:10;4.90;;;0.93;;
42864;SDS011;28511;42.680;23.252;2023-03-11T03:05:35;0.20;;;0.20;;
42864;SDS011;28511;42.680;23.252;2023-03-11T03:08:01;0.50;;;0.50;;
42864;SDS011;28511;42.680;23.252;2023-03-11T03:10:27;0.40;;;0.40;;
42864;SDS011;28511;42.680;23.252;2023-03-11T03:12:52;2.53;;;1.30;;
42864;SDS011;28511;42.680;23.252;2023-03-11T03:15:17;0.40;;;0.40;;
42864;SDS011;28511;42.680;23.252;2023-03-11T03:17:42;0.30;;;0.30;;
42864;SDS011;28511;42.680;23.252;2023-03-11T03:20:08;0.50;;;0.30;;
42864;SDS011;28511;42.680;23.252;2023-03-11T03:22:38;1.40;;;0.50;;
42864;SDS011;28511;42.680;23.252;2023-03-11T03:25:04;0.52;;;0.43;;
42864;SDS011;28511;42.680;23.252;2023-03-11T03:27:29;0.30;;;0.25;;
42864;SDS011;28511;42.680;23.252;2023-03-11T03:29:54;0.50;;;0.50;;
42864;SDS011;28511;42.680;23.252;2023-03-11T03:32:20;0.30;;;0.30;;
42864;SDS011;28511;42.680;23.252;2023-03-11T03:34:45;0.20;;;0.20;;
42864;SDS011;28511;42.680;23.252;2023-03-11T03:37:10;0.28;;;0.28;;
42864;SDS011;28511;42.680;23.252;2023-03-11T03:39:35;0.30;;;0.22;;
42864;SDS011;28511;42.680;23.252;2023-03-11T03:42:01;0.30;;;0.30;;
42864;SDS011;28511;42.680;23.252;2023-03-11T03:44:26;0.30;;;0.30;;
42864;SDS011;28511;42.680;23.252;2023-03-11T03:46:51;0.25;;;0.25;;
42864;SDS011;28511;42.680;23.252;2023-03-11T03:49:17;0.30;;;0.30;;
42864;SDS011;28511;42.680;23.252;2023-03-11T03:51:42;0.30;;;0.30;;
42864;SDS011;28511;42.680;23.252;2023-03-11T03:54:07;0.40;;;0.40;;
42864;SDS011;28511;42.680;23.252;2023-03-11T03:56:32;0.40;;;0.40;;
42864;SDS011;28511;42.680;23.252;2023-03-11T03:58:58;0.20;;;0.20;;
42864;SDS011;28511;42.680;23.252;2023-03-11T04:01:23;0.30;;;0.30;;
42864;SDS011;28511;42.680;23.252;2023-03-11T04:03:48;0.40;;;0.40;;
42864;SDS011;28511;42.680;23.252;2023-03-11T04:06:15;0.20;;;0.20;;
42864;SDS011;28511;42.680;23.252;2023-03-11T04:08:40;0.30;;;0.30;;
42864;SDS011;28511;42.680;23.252;2023-03-11T04:11:06;0.30;;;0.30;;
42864;SDS011;28511;42.680;23.252;2023-03-11T04:13:31;1.07;;;0.50;;
42864;SDS011;28511;42.680;23.252;2023-03-11T04:15:56;0.73;;;0.40;;
42864;SDS011;28511;42.680;23.252;2023-03-11T04:18:21;0.52;;;0.40;;
42864;SDS011;28511;42.680;23.252;2023-03-11T04:20:47;0.40;;;0.40;;
42864;SDS011;28511;42.680;23.252;2023-03-11T04:23:12;0.45;;;0.40;;
42864;SDS011;28511;42.680;23.252;2023-03-11T04:25:37;0.30;;;0.30;;
42864;SDS011;28511;42.680;23.252;2023-03-11T04:28:03;0.20;;;0.20;;
42864;SDS011;28511;42.680;23.252;2023-03-11T04:30:28;0.20;;;0.20;;
42864;SDS011;28511;42.680;23.252;2023-03-11T04:32:53;0.25;;;0.25;;
42864;SDS011;28511;42.680;23.252;2023-03-11T04:35:19;0.20;;;0.20;;
42864;SDS011;28511;42.680;23.252;2023-03-11T04:37:44;0.30;;;0.30;;
42864;SDS011;28511;42.680;23.252;2023-03-11T04:40:09;0.30;;;0.30;;
42864;SDS011;28511;42.680;23.252;2023-03-11T04:42:35;0.20;;;0.20;;
42864;SDS011;28511;42.680;23.252;2023-03-11T04:45:00;0.28;;;0.28;;
42864;SDS011;28511;42.680;23.252;2023-03-11T04:47:25;0.30;;;0.30;;
42864;SDS011;28511;42.680;23.252;2023-03-11T04:49:51;0.30;;;0.30;;
42864;SDS011;28511;42.680;23.252;2023-03-11T04:52:16;0.63;;;0.63;;
42864;SDS011;28511;42.680;23.252;2023-03-11T04:54:41;1.60;;;0.70;;
42864;SDS011;28511;42.680;23.252;2023-03-11T04:57:07;0.20;;;0.20;;
42864;SDS011;28511;42.680;23.252;2023-03-11T04:59:32;0.22;;;0.22;;
42864;SDS011;28511;42.680;23.252;2023-03-11T05:01:57;0.75;;;0.68;;
42864;SDS011;28511;42.680;23.252;2023-03-11T05:04:23;0.43;;;0.38;;
42864;SDS011;28511;42.680;23.252;2023-03-11T05:06:48;0.50;;;0.43;;
42864;SDS011;28511;42.680;23.252;2023-03-11T05:09:16;0.52;;;0.30;;
42864;SDS011;28511;42.680;23.252;2023-03-11T05:11:41;0.40;;;0.40;;
42864;SDS011;28511;42.680;23.252;2023-03-11T05:14:06;0.30;;;0.30;;
42864;SDS011;28511;42.680;23.252;2023-03-11T05:16:32;0.28;;;0.28;;
42864;SDS011;28511;42.680;23.252;2023-03-11T05:18:57;0.28;;;0.28;;
42864;SDS011;28511;42.680;23.252;2023-03-11T05:21:22;0.57;;;0.40;;
42864;SDS011;28511;42.680;23.252;2023-03-11T05:23:48;0.30;;;0.30;;
42864;SDS011;28511;42.680;23.252;2023-03-11T05:26:13;1.02;;;0.52;;
42864;SDS011;28511;42.680;23.252;2023-03-11T05:28:38;0.38;;;0.38;;
42864;SDS011;28511;42.680;23.252;2023-03-11T05:31:13;0.20;;;0.20;;
42864;SDS011;28511;42.680;23.252;2023-03-11T05:33:38;0.35;;;0.35;;
42864;SDS011;28511;42.680;23.252;2023-03-11T05:36:04;0.38;;;0.38;;
42864;SDS011;28511;42.680;23.252;2023-03-11T05:38:29;0.30;;;0.30;;
42864;SDS011;28511;42.680;23.252;2023-03-11T05:40:55;1.37;;;0.57;;
42864;SDS011;28511;42.680;23.252;2023-03-11T05:43:20;0.32;;;0.32;;
42864;SDS011;28511;42.680;23.252;2023-03-11T05:45:45;0.67;;;0.40;;
42864;SDS011;28511;42.680;23.252;2023-03-11T05:48:10;0.50;;;0.50;;
42864;SDS011;28511;42.680;23.252;2023-03-11T05:50:36;1.05;;;0.55;;
42864;SDS011;28511;42.680;23.252;2023-03-11T05:53:02;3.42;;;0.47;;
42864;SDS011;28511;42.680;23.252;2023-03-11T05:55:27;0.30;;;0.30;;
42864;SDS011;28511;42.680;23.252;2023-03-11T05:57:52;0.30;;;0.30;;
42864;SDS011;28511;42.680;23.252;2023-03-11T06:00:17;0.40;;;0.40;;
42864;SDS011;28511;42.680;23.252;2023-03-11T06:02:44;2.40;;;0.70;;
42864;SDS011;28511;42.680;23.252;2023-03-11T06:05:09;0.40;;;0.40;;
42864;SDS011;28511;42.680;23.252;2023-03-11T06:07:35;0.30;;;0.30;;
42864;SDS011;28511;42.680;23.252;2023-03-11T06:10:00;1.60;;;0.60;;
42864;SDS011;28511;42.680;23.252;2023-03-11T06:12:26;1.38;;;0.30;;
42864;SDS011;28511;42.680;23.252;2023-03-11T06:14:52;0.25;;;0.25;;
42864;SDS011;28511;42.680;23.252;2023-03-11T06:17:17;0.30;;;0.30;;
42864;SDS011;28511;42.680;23.252;2023-03-11T06:19:43;1.85;;;0.47;;
42864;SDS011;28511;42.680;23.252;2023-03-11T06:22:08;0.67;;;0.60;;
42864;SDS011;28511;42.680;23.252;2023-03-11T06:24:33;0.68;;;0.68;;
42864;SDS011;28511;42.680;23.252;2023-03-11T06:26:58;0.47;;;0.40;;
42864;SDS011;28511;42.680;23.252;2023-03-11T06:29:24;1.20;;;0.73;;
42864;SDS011;28511;42.680;23.252;2023-03-11T06:31:50;0.85;;;0.75;;
42864;SDS011;28511;42.680;23.252;2023-03-11T06:34:16;0.68;;;0.40;;
42864;SDS011;28511;42.680;23.252;2023-03-11T06:36:41;0.40;;;0.40;;
42864;SDS011;28511;42.680;23.252;2023-03-11T06:39:09;0.38;;;0.38;;
42864;SDS011;28511;42.680;23.252;2023-03-11T06:41:35;0.30;;;0.30;;
42864;SDS011;28511;42.680;23.252;2023-03-11T06:44:01;0.47;;;0.47;;
42864;SDS011;28511;42.680;23.252;2023-03-11T06:46:26;7.13;;;0.82;;
42864;SDS011;28511;42.680;23.252;2023-03-11T06:48:52;1.88;;;0.75;;
42864;SDS011;28511;42.680;23.252;2023-03-11T06:51:18;1.25;;;0.50;;
42864;SDS011;28511;42.680;23.252;2023-03-11T06:53:44;2.33;;;0.55;;
42864;SDS011;28511;42.680;23.252;2023-03-11T06:56:13;0.70;;;0.70;;
42864;SDS011;28511;42.680;23.252;2023-03-11T06:58:39;1.63;;;0.80;;
42864;SDS011;28511;42.680;23.252;2023-03-11T07:01:06;0.73;;;0.70;;
42864;SDS011;28511;42.680;23.252;2023-03-11T07:03:32;0.45;;;0.45;;
42864;SDS011;28511;42.680;23.252;2023-03-11T07:05:58;2.25;;;1.02;;
42864;SDS011;28511;42.680;23.252;2023-03-11T07:08:24;0.80;;;0.57;;
42864;SDS011;28511;42.680;23.252;2023-03-11T07:10:59;1.38;;;0.75;;
42864;SDS011;28511;42.680;23.252;2023-03-11T07:13:24;1.60;;;1.00;;
42864;SDS011;28511;42.680;23.252;2023-03-11T07:15:57;2.30;;;0.50;;
42864;SDS011;28511;42.680;23.252;2023-03-11T07:18:23;1.10;;;0.43;;
42864;SDS011;28511;42.680;23.252;2023-03-11T07:20:48;1.13;;;1.03;;
42864;SDS011;28511;42.680;23.252;2023-03-11T07:23:13;1.80;;;0.80;;
42864;SDS011;28511;42.680;23.252;2023-03-11T07:25:44;1.00;;;0.85;;
42864;SDS011;28511;42.680;23.252;2023-03-11T07:28:09;2.13;;;0.70;;
42864;SDS011;28511;42.680;23.252;2023-03-11T07:30:34;2.80;;;0.60;;
42864;SDS011;28511;42.680;23.252;2023-03-11T07:33:02;0.50;;;0.50;;
42864;SDS011;28511;42.680;23.252;2023-03-11T07:35:27;1.83;;;0.90;;
42864;SDS011;28511;42.680;23.252;2023-03-11T07:37:52;0.80;;;0.60;;
42864;SDS011;28511;42.680;23.252;2023-03-11T07:40:18;1.30;;;0.80;;
42864;SDS011;28511;42.680;23.252;2023-03-11T07:42:43;2.30;;;0.50;;
42864;SDS011;28511;42.680;23.252;2023-03-11T07:45:08;1.52;;;0.80;;
42864;SDS011;28511;42.680;23.252;2023-03-11T07:47:34;1.70;;;0.93;;
42864;SDS011;28511;42.680;23.252;2023-03-11T07:49:59;0.85;;;0.70;;
42864;SDS011;28511;42.680;23.252;2023-03-11T07:52:24;0.97;;;0.53;;
42864;SDS011;28511;42.680;23.252;2023-03-11T07:54:49;1.35;;;0.85;;
42864;SDS011;28511;42.680;23.252;2023-03-11T07:57:15;0.77;;;0.70;;
42864;SDS011;28511;42.680;23.252;2023-03-11T07:59:41;2.22;;;1.05;;
42864;SDS011;28511;42.680;23.252;2023-03-11T08:02:08;0.40;;;0.40;;
42864;SDS011;28511;42.680;23.252;2023-03-11T08:04:33;0.40;;;0.40;;
42864;SDS011;28511;42.680;23.252;2023-03-11T08:06:58;0.23;;;0.23;;
42864;SDS011;28511;42.680;23.252;2023-03-11T08:09:24;1.17;;;0.70;;
42864;SDS011;28511;42.680;23.252;2023-03-11T08:11:49;1.27;;;0.40;;
42864;SDS011;28511;42.680;23.252;2023-03-11T08:14:14;0.43;;;0.40;;
42864;SDS011;28511;42.680;23.252;2023-03-11T08:16:39;0.80;;;0.80;;
42864;SDS011;28511;42.680;23.252;2023-03-11T08:19:05;0.80;;;0.38;;
42864;SDS011;28511;42.680;23.252;2023-03-11T08:21:30;1.17;;;0.73;;
42864;SDS011;28511;42.680;23.252;2023-03-11T08:23:56;0.45;;;0.45;;
42864;SDS011;28511;42.680;23.252;2023-03-11T08:26:22;2.20;;;0.98;;
42864;SDS011;28511;42.680;23.252;2023-03-11T08:28:48;2.83;;;0.90;;
42864;SDS011;28511;42.680;23.252;2023-03-11T08:31:14;2.30;;;0.80;;
42864;SDS011;28511;42.680;23.252;2023-03-11T08:33:40;2.20;;;1.08;;
42864;SDS011;28511;42.680;23.252;2023-03-11T08:36:05;1.13;;;0.88;;
42864;SDS011;28511;42.680;23.252;2023-03-11T08:38:31;1.90;;;1.17;;
42864;SDS011;28511;42.680;23.252;2023-03-11T08:40:56;0.93;;;0.73;;
42864;SDS011;28511;42.680;23.252;2023-03-11T08:43:21;1.80;;;0.60;;
42864;SDS011;28511;42.680;23.252;2023-03-11T08:45:46;0.68;;;0.50;;
42864;SDS011;28511;42.680;23.252;2023-03-11T08:48:12;0.88;;;0.82;;
42864;SDS011;28511;42.680;23.252;2023-03-11T08:50:41;1.88;;;0.90;;
42864;SDS011;28511;42.680;23.252;2023-03-11T08:53:07;0.75;;;0.30;;
42864;SDS011;28511;42.680;23.252;2023-03-11T08:55:33;1.27;;;0.50;;
42864;SDS011;28511;42.680;23.252;2023-03-11T08:57:58;0.52;;;0.50;;
42864;SDS011;28511;42.680;23.252;2023-03-11T09:00:23;2.30;;;0.65;;
42864;SDS011;28511;42.680;23.252;2023-03-11T09:02:48;0.75;;;0.50;;
42864;SDS011;28511;42.680;23.252;2023-03-11T09:05:14;0.30;;;0.30;;
42864;SDS011;28511;42.680;23.252;2023-03-11T09:07:39;3.08;;;0.45;;
42864;SDS011;28511;42.680;23.252;2023-03-11T09:10:05;1.73;;;0.40;;
42864;SDS011;28511;42.680;23.252;2023-03-11T09:12:31;1.40;;;0.57;;
42864;SDS011;28511;42.680;23.252;2023-03-11T09:14:56;0.38;;;0.38;;
42864;SDS011;28511;42.680;23.252;2023-03-11T09:17:21;0.30;;;0.30;;
42864;SDS011;28511;42.680;23.252;2023-03-11T09:19:47;1.65;;;0.90;;
42864;SDS011;28511;42.680;23.252;2023-03-11T09:22:12;1.10;;;0.73;;
42864;SDS011;28511;42.680;23.252;2023-03-11T09:24:37;0.30;;;0.30;;
42864;SDS011;28511;42.680;23.252;2023-03-11T09:27:03;1.60;;;0.60;;
42864;SDS011;28511;42.680;23.252;2023-03-11T09:29:28;0.63;;;0.63;;
42864;SDS011;28511;42.680;23.252;2023-03-11T09:31:53;1.00;;;0.65;;
42864;SDS011;28511;42.680;23.252;2023-03-11T09:34:19;0.40;;;0.40;;
42864;SDS011;28511;42.680;23.252;2023-03-11T09:36:44;1.00;;;0.50;;
42864;SDS011;28511;42.680;23.252;2023-03-11T09:39:10;2.50;;;0.82;;
42864;SDS011;28511;42.680;23.252;2023-03-11T09:54:44;0.55;;;0.55;;
42864;SDS011;28511;42.680;23.252;2023-03-11T09:57:15;0.77;;;0.47;;
42864;SDS011;28511;42.680;23.252;2023-03-11T09:59:41;0.60;;;0.50;;
42864;SDS011;28511;42.680;23.252;2023-03-11T10:02:10;1.83;;;0.60;;
42864;SDS011;28511;42.680;23.252;2023-03-11T10:04:50;0.90;;;0.70;;
42864;SDS011;28511;42.680;23.252;2023-03-11T10:07:18;1.52;;;0.80;;
42864;SDS011;28511;42.680;23.252;2023-03-11T10:12:19;0.67;;;0.50;;
42864;SDS011;28511;42.680;23.252;2023-03-11T10:20:20;0.80;;;0.50;;
42864;SDS011;28511;42.680;23.252;2023-03-11T10:28:16;3.90;;;0.98;;
42864;SDS011;28511;42.680;23.252;2023-03-11T10:30:44;3.40;;;1.15;;
42864;SDS011;28511;42.680;23.252;2023-03-11T10:35:55;2.83;;;0.85;;
42864;SDS011;28511;42.680;23.252;2023-03-11T10:38:32;0.63;;;0.63;;
42864;SDS011;28511;42.680;23.252;2023-03-11T10:41:00;1.75;;;0.80;;
42864;SDS011;28511;42.680;23.252;2023-03-11T10:43:37;0.30;;;0.30;;
42864;SDS011;28511;42.680;23.252;2023-03-11T10:46:04;0.75;;;0.40;;
42864;SDS011;28511;42.680;23.252;2023-03-11T10:48:31;0.30;;;0.30;;
42864;SDS011;28511;42.680;23.252;2023-03-11T10:51:01;0.80;;;0.50;;
42864;SDS011;28511;42.680;23.252;2023-03-11T10:53:26;0.30;;;0.30;;
42864;SDS011;28511;42.680;23.252;2023-03-11T10:55:53;0.50;;;0.50;;
42864;SDS011;28511;42.680;23.252;2023-03-11T10:58:22;1.27;;;0.40;;
42864;SDS011;28511;42.680;23.252;2023-03-11T11:03:19;2.75;;;0.50;;
42864;SDS011;28511;42.680;23.252;2023-03-11T11:05:48;16.67;;;1.48;;
42864;SDS011;28511;42.680;23.252;2023-03-11T11:08:20;1.00;;;0.40;;
42864;SDS011;28511;42.680;23.252;2023-03-11T11:10:53;1.73;;;0.80;;
42864;SDS011;28511;42.680;23.252;2023-03-11T11:13:20;1.13;;;0.73;;
42864;SDS011;28511;42.680;23.252;2023-03-11T11:15:55;0.70;;;0.70;;
42864;SDS011;28511;42.680;23.252;2023-03-11T11:23:25;0.35;;;0.35;;
42864;SDS011;28511;42.680;23.252;2023-03-11T11:25:58;0.73;;;0.73;;
42864;SDS011;28511;42.680;23.252;2023-03-11T11:28:23;0.73;;;0.40;;
42864;SDS011;28511;42.680;23.252;2023-03-11T11:30:56;1.60;;;0.93;;
42864;SDS011;28511;42.680;23.252;2023-03-11T11:33:26;0.45;;;0.45;;
42864;SDS011;28511;42.680;23.252;2023-03-11T11:35:53;1.05;;;0.73;;
42864;SDS011;28511;42.680;23.252;2023-03-11T11:38:20;1.17;;;0.73;;
42864;SDS011;28511;42.680;23.252;2023-03-11T11:40:46;1.25;;;0.80;;
42864;SDS011;28511;42.680;23.252;2023-03-11T11:43:13;2.25;;;0.70;;
42864;SDS011;28511;42.680;23.252;2023-03-11T11:45:41;0.82;;;0.73;;
42864;SDS011;28511;42.680;23.252;2023-03-11T11:50:39;1.17;;;0.65;;
42864;SDS011;28511;42.680;23.252;2023-03-11T11:55:50;1.15;;;0.70;;
42864;SDS011;28511;42.680;23.252;2023-03-11T11:58:19;0.65;;;0.60;;
42864;SDS011;28511;42.680;23.252;2023-03-11T12:05:57;0.70;;;0.70;;
42864;SDS011;28511;42.680;23.252;2023-03-11T12:08:30;2.33;;;0.82;;
42864;SDS011;28511;42.680;23.252;2023-03-11T12:11:02;0.65;;;0.65;;
42864;SDS011;28511;42.680;23.252;2023-03-11T12:18:51;0.47;;;0.40;;
42864;SDS011;28511;42.680;23.252;2023-03-11T12:21:41;1.80;;;0.60;;
42864;SDS011;28511;42.680;23.252;2023-03-11T12:24:12;1.00;;;0.75;;
42864;SDS011;28511;42.680;23.252;2023-03-11T12:26:40;1.50;;;0.70;;
42864;SDS011;28511;42.680;23.252;2023-03-11T12:29:09;0.40;;;0.40;;
42864;SDS011;28511;42.680;23.252;2023-03-11T12:31:35;0.82;;;0.47;;
42864;SDS011;28511;42.680;23.252;2023-03-11T12:34:03;0.47;;;0.47;;
42864;SDS011;28511;42.680;23.252;2023-03-11T12:36:31;0.47;;;0.40;;
42864;SDS011;28511;42.680;23.252;2023-03-11T12:38:58;0.30;;;0.30;;
42864;SDS011;28511;42.680;23.252;2023-03-11T12:41:31;5.57;;;0.93;;
42864;SDS011;28511;42.680;23.252;2023-03-11T12:44:01;0.60;;;0.60;;
42864;SDS011;28511;42.680;23.252;2023-03-11T12:49:11;0.85;;;0.68;;
42864;SDS011;28511;42.680;23.252;2023-03-11T12:51:37;0.40;;;0.40;;
42864;SDS011;28511;42.680;23.252;2023-03-11T13:13:00;0.93;;;0.57;;
42864;SDS011;28511;42.680;23.252;2023-03-11T13:15:30;1.55;;;0.60;;
42864;SDS011;28511;42.680;23.252;2023-03-11T13:18:01;1.15;;;0.60;;
42864;SDS011;28511;42.680;23.252;2023-03-11T13:25:39;0.57;;;0.57;;
42864;SDS011;28511;42.680;23.252;2023-03-11T13:30:56;0.32;;;0.32;;
42864;SDS011;28511;42.680;23.252;2023-03-11T13:33:28;0.40;;;0.40;;
42864;SDS011;28511;42.680;23.252;2023-03-11T13:40:57;1.20;;;0.93;;
42864;SDS011;28511;42.680;23.252;2023-03-11T13:43:23;0.50;;;0.50;;
42864;SDS011;28511;42.680;23.252;2023-03-11T13:45:53;1.83;;;1.35;;
42864;SDS011;28511;42.680;23.252;2023-03-11T13:48:23;1.90;;;0.77;;
42864;SDS011;28511;42.680;23.252;2023-03-11T13:53:24;1.65;;;1.35;;
42864;SDS011;28511;42.680;23.252;2023-03-11T13:55:53;1.75;;;0.60;;
42864;SDS011;28511;42.680;23.252;2023-03-11T13:58:19;2.10;;;0.77;;
42864;SDS011;28511;42.680;23.252;2023-03-11T14:00:48;1.02;;;0.73;;
42864;SDS011;28511;42.680;23.252;2023-03-11T14:05:45;0.55;;;0.52;;
42864;SDS011;28511;42.680;23.252;2023-03-11T14:11:00;1.17;;;0.90;;
42864;SDS011;28511;42.680;23.252;2023-03-11T14:13:27;1.85;;;0.95;;
42864;SDS011;28511;42.680;23.252;2023-03-11T14:16:01;1.65;;;0.82;;
42864;SDS011;28511;42.680;23.252;2023-03-11T14:18:31;1.92;;;0.95;;
42864;SDS011;28511;42.680;23.252;2023-03-11T14:20:57;1.05;;;0.52;;
42864;SDS011;28511;42.680;23.252;2023-03-11T14:23:24;1.65;;;0.82;;
42864;SDS011;28511;42.680;23.252;2023-03-11T14:26:13;2.25;;;1.38;;
42864;SDS011;28511;42.680;23.252;2023-03-11T14:28:39;1.67;;;1.00;;
42864;SDS011;28511;42.680;23.252;2023-03-11T14:31:05;2.88;;;0.90;;
42864;SDS011;28511;42.680;23.252;2023-03-11T14:33:30;1.67;;;1.08;;
42864;SDS011;28511;42.680;23.252;2023-03-11T14:35:57;2.97;;;1.75;;
42864;SDS011;28511;42.680;23.252;2023-03-11T14:38:24;1.70;;;0.70;;
42864;SDS011;28511;42.680;23.252;2023-03-11T14:40:51;0.95;;;0.90;;
42864;SDS011;28511;42.680;23.252;2023-03-11T14:43:17;0.73;;;0.65;;
42864;SDS011;28511;42.680;23.252;2023-03-11T14:45:43;0.95;;;0.95;;
42864;SDS011;28511;42.680;23.252;2023-03-11T14:48:28;0.63;;;0.63;;
42864;SDS011;28511;42.680;23.252;2023-03-11T14:50:54;1.70;;;1.13;;
42864;SDS011;28511;42.680;23.252;2023-03-11T14:53:23;4.15;;;1.27;;
42864;SDS011;28511;42.680;23.252;2023-03-11T14:55:49;1.40;;;1.08;;
42864;SDS011;28511;42.680;23.252;2023-03-11T15:03:23;1.35;;;0.77;;
42864;SDS011;28511;42.680;23.252;2023-03-11T15:05:49;1.75;;;0.98;;
42864;SDS011;28511;42.680;23.252;2023-03-11T15:08:17;1.17;;;0.88;;
42864;SDS011;28511;42.680;23.252;2023-03-11T15:10:59;2.70;;;1.30;;
42864;SDS011;28511;42.680;23.252;2023-03-11T15:13:24;1.17;;;1.13;;
42864;SDS011;28511;42.680;23.252;2023-03-11T15:18:34;4.35;;;1.70;;
42864;SDS011;28511;42.680;23.252;2023-03-11T15:23:28;4.43;;;1.57;;
42864;SDS011;28511;42.680;23.252;2023-03-11T15:25:53;1.52;;;1.05;;
42864;SDS011;28511;42.680;23.252;2023-03-11T15:28:29;1.17;;;1.05;;
42864;SDS011;28511;42.680;23.252;2023-03-11T15:34:18;1.65;;;1.38;;
42864;SDS011;28511;42.680;23.252;2023-03-11T15:39:17;1.15;;;1.00;;
42864;SDS011;28511;42.680;23.252;2023-03-11T15:41:43;4.63;;;1.75;;
42864;SDS011;28511;42.680;23.252;2023-03-11T15:44:22;1.00;;;1.00;;
42864;SDS011;28511;42.680;23.252;2023-03-11T15:46:48;2.50;;;0.90;;
42864;SDS011;28511;42.680;23.252;2023-03-11T15:49:13;1.25;;;0.70;;
42864;SDS011;28511;42.680;23.252;2023-03-11T15:51:39;3.60;;;1.60;;
42864;SDS011;28511;42.680;23.252;2023-03-11T15:54:04;2.90;;;1.85;;
42864;SDS011;28511;42.680;23.252;2023-03-11T15:56:29;3.33;;;1.30;;
42864;SDS011;28511;42.680;23.252;2023-03-11T15:58:57;2.78;;;1.55;;
42864;SDS011;28511;42.680;23.252;2023-03-11T16:01:22;1.33;;;1.23;;
42864;SDS011;28511;42.680;23.252;2023-03-11T16:03:52;3.08;;;1.83;;
42864;SDS011;28511;42.680;23.252;2023-03-11T16:06:17;1.67;;;1.40;;
42864;SDS011;28511;42.680;23.252;2023-03-11T16:08:43;3.97;;;2.75;;
42864;SDS011;28511;42.680;23.252;2023-03-11T16:11:10;2.47;;;1.83;;
42864;SDS011;28511;42.680;23.252;2023-03-11T16:13:36;5.63;;;2.22;;
42864;SDS011;28511;42.680;23.252;2023-03-11T16:16:01;4.78;;;1.77;;
42864;SDS011;28511;42.680;23.252;2023-03-11T16:18:27;3.63;;;2.38;;
42864;SDS011;28511;42.680;23.252;2023-03-11T16:20:52;2.17;;;1.35;;
42864;SDS011;28511;42.680;23.252;2023-03-11T16:23:19;2.65;;;1.67;;